sensor_id;sensor_type;location;lat;lon;timestamp;P1;durP1;ratioP1;P2;durP2;ratioP2
31808;SDS011;18379;48.208;-1.518;2023-03-12T00:01:43;55.10;;;47.13;;
31808;SDS011;18379;48.208;-1.518;2023-03-12T00:06:43;55.23;;;47.07;;
31808;SDS011;18379;48.208;-1.518;2023-03-12T00:11:44;55.90;;;47.10;;
31808;SDS011;18379;48.208;-1.518;2023-03-12T00:16:45;62.57;;;48.43;;
31808;SDS011;18379;48.208;-1.518;2023-03-12T00:21:46;67.57;;;48.97;;
31808;SDS011;18379;48.208;-1.518;2023-03-12T00:26:47;54.60;;;48.67;;
31808;SDS011;18379;48.208;-1.518;2023-03-12T00:31:47;62.13;;;48.17;;
31808;SDS011;18379;48.208;-1.518;2023-03-12T00:36:50;62.17;;;49.43;;
31808;SDS011;18379;48.208;-1.518;2023-03-12T00:41:51;53.27;;;47.57;;
31808;SDS011;18379;48.208;-1.518;2023-03-12T00:46:52;59.90;;;49.03;;
31808;SDS011;18379;48.208;-1.518;2023-03-12T00:51:53;54.47;;;47.83;;
31808;SDS011;18379;48.208;-1.518;2023-03-12T00:56:54;66.17;;;48.17;;
31808;SDS011;18379;48.208;-1.518;2023-03-12T01:01:55;71.60;;;47.33;;
31808;SDS011;18379;48.208;-1.518;2023-03-12T01:06:55;60.97;;;47.07;;
31808;SDS011;18379;48.208;-1.518;2023-03-12T01:11:56;58.47;;;45.10;;
31808;SDS011;18379;48.208;-1.518;2023-03-12T01:16:57;51.00;;;45.50;;
31808;SDS011;18379;48.208;-1.518;2023-03-12T01:21:58;52.63;;;45.10;;
31808;SDS011;18379;48.208;-1.518;2023-03-12T01:26:58;59.33;;;45.60;;
31808;SDS011;18379;48.208;-1.518;2023-03-12T01:31:59;53.47;;;44.77;;
31808;SDS011;18379;48.208;-1.518;2023-03-12T01:37:00;55.57;;;45.07;;
31808;SDS011;18379;48.208;-1.518;2023-03-12T01:42:01;53.13;;;44.70;;
31808;SDS011;18379;48.208;-1.518;2023-03-12T01:47:02;63.60;;;45.27;;
31808;SDS011;18379;48.208;-1.518;2023-03-12T01:52:04;49.70;;;44.27;;
31808;SDS011;18379;48.208;-1.518;2023-03-12T01:57:09;57.40;;;44.60;;
31808;SDS011;18379;48.208;-1.518;2023-03-12T02:02:15;56.40;;;46.40;;
31808;SDS011;18379;48.208;-1.518;2023-03-12T02:07:25;54.80;;;46.03;;
31808;SDS011;18379;48.208;-1.518;2023-03-12T02:12:26;49.70;;;44.07;;
31808;SDS011;18379;48.208;-1.518;2023-03-12T02:17:27;56.50;;;44.87;;
31808;SDS011;18379;48.208;-1.518;2023-03-12T02:22:28;59.33;;;44.90;;
31808;SDS011;18379;48.208;-1.518;2023-03-12T02:27:32;50.30;;;43.73;;
31808;SDS011;18379;48.208;-1.518;2023-03-12T02:32:37;60.07;;;43.30;;
31808;SDS011;18379;48.208;-1.518;2023-03-12T02:37:48;60.43;;;45.97;;
31808;SDS011;18379;48.208;-1.518;2023-03-12T02:42:51;53.23;;;45.90;;
31808;SDS011;18379;48.208;-1.518;2023-03-12T02:47:52;63.23;;;46.57;;
31808;SDS011;18379;48.208;-1.518;2023-03-12T02:52:53;63.77;;;47.40;;
31808;SDS011;18379;48.208;-1.518;2023-03-12T02:57:54;58.13;;;45.10;;
31808;SDS011;18379;48.208;-1.518;2023-03-12T03:02:54;61.33;;;45.53;;
31808;SDS011;18379;48.208;-1.518;2023-03-12T03:07:57;64.00;;;43.60;;
31808;SDS011;18379;48.208;-1.518;2023-03-12T03:12:58;60.40;;;43.20;;
31808;SDS011;18379;48.208;-1.518;2023-03-12T03:17:59;54.13;;;42.57;;
31808;SDS011;18379;48.208;-1.518;2023-03-12T03:23:04;62.00;;;43.47;;
31808;SDS011;18379;48.208;-1.518;2023-03-12T03:28:04;70.80;;;45.50;;
31808;SDS011;18379;48.208;-1.518;2023-03-12T03:33:06;60.53;;;44.13;;
31808;SDS011;18379;48.208;-1.518;2023-03-12T03:38:29;68.17;;;45.63;;
31808;SDS011;18379;48.208;-1.518;2023-03-12T03:43:34;62.53;;;46.40;;
31808;SDS011;18379;48.208;-1.518;2023-03-12T03:48:35;65.17;;;46.13;;
31808;SDS011;18379;48.208;-1.518;2023-03-12T03:53:36;67.47;;;46.97;;
31808;SDS011;18379;48.208;-1.518;2023-03-12T03:58:37;63.83;;;46.10;;
31808;SDS011;18379;48.208;-1.518;2023-03-12T04:03:37;70.67;;;46.90;;
31808;SDS011;18379;48.208;-1.518;2023-03-12T04:08:38;52.20;;;45.80;;
31808;SDS011;18379;48.208;-1.518;2023-03-12T04:13:40;61.40;;;46.57;;
31808;SDS011;18379;48.208;-1.518;2023-03-12T04:18:41;64.53;;;47.17;;
31808;SDS011;18379;48.208;-1.518;2023-03-12T04:23:42;85.80;;;54.40;;
31808;SDS011;18379;48.208;-1.518;2023-03-12T04:28:43;74.97;;;49.07;;
31808;SDS011;18379;48.208;-1.518;2023-03-12T04:33:44;70.17;;;47.33;;
31808;SDS011;18379;48.208;-1.518;2023-03-12T04:38:44;70.40;;;46.80;;
31808;SDS011;18379;48.208;-1.518;2023-03-12T04:43:45;83.40;;;49.43;;
31808;SDS011;18379;48.208;-1.518;2023-03-12T04:48:46;76.27;;;52.13;;
31808;SDS011;18379;48.208;-1.518;2023-03-12T04:53:47;61.40;;;44.77;;
31808;SDS011;18379;48.208;-1.518;2023-03-12T04:58:48;73.47;;;45.83;;
31808;SDS011;18379;48.208;-1.518;2023-03-12T05:03:48;59.27;;;43.53;;
31808;SDS011;18379;48.208;-1.518;2023-03-12T05:08:50;51.03;;;42.70;;
31808;SDS011;18379;48.208;-1.518;2023-03-12T05:13:51;60.17;;;42.37;;
31808;SDS011;18379;48.208;-1.518;2023-03-12T05:18:52;57.70;;;42.63;;
31808;SDS011;18379;48.208;-1.518;2023-03-12T05:23:53;70.50;;;44.70;;
31808;SDS011;18379;48.208;-1.518;2023-03-12T05:28:54;75.97;;;43.73;;
31808;SDS011;18379;48.208;-1.518;2023-03-12T05:33:55;63.80;;;42.80;;
31808;SDS011;18379;48.208;-1.518;2023-03-12T05:38:56;61.53;;;43.43;;
31808;SDS011;18379;48.208;-1.518;2023-03-12T05:43:57;59.57;;;43.07;;
31808;SDS011;18379;48.208;-1.518;2023-03-12T05:48:58;69.73;;;43.17;;
31808;SDS011;18379;48.208;-1.518;2023-03-12T05:53:59;52.60;;;41.77;;
31808;SDS011;18379;48.208;-1.518;2023-03-12T05:59:00;67.70;;;42.50;;
31808;SDS011;18379;48.208;-1.518;2023-03-12T06:04:01;61.80;;;43.07;;
31808;SDS011;18379;48.208;-1.518;2023-03-12T06:09:03;69.97;;;44.93;;
31808;SDS011;18379;48.208;-1.518;2023-03-12T06:14:05;82.67;;;48.10;;
31808;SDS011;18379;48.208;-1.518;2023-03-12T06:19:06;64.40;;;44.63;;
31808;SDS011;18379;48.208;-1.518;2023-03-12T06:24:07;68.30;;;47.90;;
31808;SDS011;18379;48.208;-1.518;2023-03-12T06:29:08;59.77;;;45.20;;
31808;SDS011;18379;48.208;-1.518;2023-03-12T06:34:09;71.87;;;44.50;;
31808;SDS011;18379;48.208;-1.518;2023-03-12T06:39:10;58.90;;;44.73;;
31808;SDS011;18379;48.208;-1.518;2023-03-12T06:44:10;72.80;;;51.73;;
31808;SDS011;18379;48.208;-1.518;2023-03-12T06:49:11;64.57;;;45.60;;
31808;SDS011;18379;48.208;-1.518;2023-03-12T06:54:13;69.83;;;44.83;;
31808;SDS011;18379;48.208;-1.518;2023-03-12T06:59:13;63.77;;;44.27;;
31808;SDS011;18379;48.208;-1.518;2023-03-12T07:04:14;68.07;;;44.50;;
31808;SDS011;18379;48.208;-1.518;2023-03-12T07:09:18;53.47;;;44.00;;
31808;SDS011;18379;48.208;-1.518;2023-03-12T07:14:19;60.97;;;42.17;;
31808;SDS011;18379;48.208;-1.518;2023-03-12T07:19:20;50.20;;;41.00;;
31808;SDS011;18379;48.208;-1.518;2023-03-12T07:24:21;45.97;;;41.07;;
31808;SDS011;18379;48.208;-1.518;2023-03-12T07:29:22;58.40;;;42.23;;
31808;SDS011;18379;48.208;-1.518;2023-03-12T07:34:22;55.60;;;43.33;;
31808;SDS011;18379;48.208;-1.518;2023-03-12T07:39:23;49.60;;;41.97;;
31808;SDS011;18379;48.208;-1.518;2023-03-12T07:44:24;51.13;;;43.23;;
31808;SDS011;18379;48.208;-1.518;2023-03-12T07:49:25;54.87;;;43.10;;
31808;SDS011;18379;48.208;-1.518;2023-03-12T07:54:26;67.47;;;44.30;;
31808;SDS011;18379;48.208;-1.518;2023-03-12T07:59:29;58.73;;;44.13;;
31808;SDS011;18379;48.208;-1.518;2023-03-12T08:04:30;55.23;;;43.70;;
31808;SDS011;18379;48.208;-1.518;2023-03-12T08:09:31;50.20;;;44.80;;
31808;SDS011;18379;48.208;-1.518;2023-03-12T08:14:32;59.10;;;45.37;;
31808;SDS011;18379;48.208;-1.518;2023-03-12T08:19:33;56.83;;;45.83;;
31808;SDS011;18379;48.208;-1.518;2023-03-12T08:24:34;57.10;;;46.00;;
31808;SDS011;18379;48.208;-1.518;2023-03-12T08:29:35;60.70;;;47.60;;
31808;SDS011;18379;48.208;-1.518;2023-03-12T08:34:36;57.27;;;47.50;;
31808;SDS011;18379;48.208;-1.518;2023-03-12T08:39:37;58.30;;;46.57;;
31808;SDS011;18379;48.208;-1.518;2023-03-12T08:44:37;56.17;;;46.93;;
31808;SDS011;18379;48.208;-1.518;2023-03-12T08:49:38;55.13;;;47.23;;
31808;SDS011;18379;48.208;-1.518;2023-03-12T08:54:39;52.13;;;46.70;;
31808;SDS011;18379;48.208;-1.518;2023-03-12T08:59:40;54.10;;;48.23;;
31808;SDS011;18379;48.208;-1.518;2023-03-12T09:04:41;53.97;;;46.97;;
31808;SDS011;18379;48.208;-1.518;2023-03-12T09:09:41;56.77;;;47.73;;
31808;SDS011;18379;48.208;-1.518;2023-03-12T09:14:42;53.90;;;48.17;;
31808;SDS011;18379;48.208;-1.518;2023-03-12T09:19:43;56.50;;;48.37;;
31808;SDS011;18379;48.208;-1.518;2023-03-12T09:24:44;55.23;;;49.57;;
31808;SDS011;18379;48.208;-1.518;2023-03-12T09:29:45;54.37;;;48.47;;
31808;SDS011;18379;48.208;-1.518;2023-03-12T09:34:46;62.27;;;54.50;;
31808;SDS011;18379;48.208;-1.518;2023-03-12T09:39:48;54.90;;;49.37;;
31808;SDS011;18379;48.208;-1.518;2023-03-12T09:44:49;60.07;;;49.90;;
31808;SDS011;18379;48.208;-1.518;2023-03-12T09:50:00;53.37;;;47.00;;
31808;SDS011;18379;48.208;-1.518;2023-03-12T09:55:06;65.13;;;50.10;;
31808;SDS011;18379;48.208;-1.518;2023-03-12T10:00:16;59.40;;;52.93;;
31808;SDS011;18379;48.208;-1.518;2023-03-12T10:10:48;61.30;;;54.30;;
31808;SDS011;18379;48.208;-1.518;2023-03-12T10:16:04;52.80;;;47.07;;
31808;SDS011;18379;48.208;-1.518;2023-03-12T10:26:50;55.07;;;49.37;;
31808;SDS011;18379;48.208;-1.518;2023-03-12T10:37:17;55.80;;;49.03;;
31808;SDS011;18379;48.208;-1.518;2023-03-12T10:42:23;52.67;;;47.63;;
31808;SDS011;18379;48.208;-1.518;2023-03-12T10:52:38;56.43;;;50.37;;
31808;SDS011;18379;48.208;-1.518;2023-03-12T10:57:39;57.03;;;50.90;;
31808;SDS011;18379;48.208;-1.518;2023-03-12T11:02:44;55.30;;;49.60;;
31808;SDS011;18379;48.208;-1.518;2023-03-12T11:07:59;54.23;;;49.30;;
31808;SDS011;18379;48.208;-1.518;2023-03-12T11:13:03;55.53;;;49.77;;
31808;SDS011;18379;48.208;-1.518;2023-03-12T11:18:35;57.67;;;51.37;;
31808;SDS011;18379;48.208;-1.518;2023-03-12T11:23:41;57.93;;;51.80;;
31808;SDS011;18379;48.208;-1.518;2023-03-12T11:28:58;86.60;;;61.60;;
31808;SDS011;18379;48.208;-1.518;2023-03-12T11:34:05;66.53;;;53.67;;
31808;SDS011;18379;48.208;-1.518;2023-03-12T11:39:18;57.20;;;51.03;;
31808;SDS011;18379;48.208;-1.518;2023-03-12T11:44:40;57.33;;;51.80;;
31808;SDS011;18379;48.208;-1.518;2023-03-12T11:55:40;53.67;;;48.90;;
31808;SDS011;18379;48.208;-1.518;2023-03-12T12:01:12;54.93;;;49.17;;
31808;SDS011;18379;48.208;-1.518;2023-03-12T12:06:39;54.27;;;49.00;;
31808;SDS011;18379;48.208;-1.518;2023-03-12T12:12:02;57.23;;;51.47;;
31808;SDS011;18379;48.208;-1.518;2023-03-12T12:17:36;61.70;;;52.90;;
31808;SDS011;18379;48.208;-1.518;2023-03-12T12:44:28;52.93;;;48.00;;
31808;SDS011;18379;48.208;-1.518;2023-03-12T12:49:50;64.90;;;56.80;;
31808;SDS011;18379;48.208;-1.518;2023-03-12T12:55:32;55.60;;;49.90;;
31808;SDS011;18379;48.208;-1.518;2023-03-12T13:00:53;58.60;;;53.10;;
31808;SDS011;18379;48.208;-1.518;2023-03-12T13:06:19;56.73;;;51.30;;
31808;SDS011;18379;48.208;-1.518;2023-03-12T13:11:25;61.63;;;55.93;;
31808;SDS011;18379;48.208;-1.518;2023-03-12T13:21:49;52.37;;;47.73;;
31808;SDS011;18379;48.208;-1.518;2023-03-12T13:37:56;53.60;;;48.67;;
31808;SDS011;18379;48.208;-1.518;2023-03-12T13:48:13;58.63;;;53.13;;
31808;SDS011;18379;48.208;-1.518;2023-03-12T13:53:26;57.13;;;51.87;;
31808;SDS011;18379;48.208;-1.518;2023-03-12T14:03:59;51.67;;;47.17;;
31808;SDS011;18379;48.208;-1.518;2023-03-12T14:09:25;51.87;;;47.63;;
31808;SDS011;18379;48.208;-1.518;2023-03-12T14:20:00;52.10;;;47.33;;
31808;SDS011;18379;48.208;-1.518;2023-03-12T14:25:11;53.80;;;49.00;;
31808;SDS011;18379;48.208;-1.518;2023-03-12T14:30:22;56.07;;;51.07;;
31808;SDS011;18379;48.208;-1.518;2023-03-12T14:35:32;50.03;;;46.33;;
31808;SDS011;18379;48.208;-1.518;2023-03-12T14:40:54;54.83;;;50.37;;
31808;SDS011;18379;48.208;-1.518;2023-03-12T14:46:29;50.40;;;46.63;;
31808;SDS011;18379;48.208;-1.518;2023-03-12T14:51:30;51.00;;;46.53;;
31808;SDS011;18379;48.208;-1.518;2023-03-12T14:56:35;50.87;;;47.03;;
31808;SDS011;18379;48.208;-1.518;2023-03-12T15:01:36;52.93;;;48.00;;
31808;SDS011;18379;48.208;-1.518;2023-03-12T15:06:42;54.00;;;49.10;;
31808;SDS011;18379;48.208;-1.518;2023-03-12T15:11:55;55.67;;;50.53;;
31808;SDS011;18379;48.208;-1.518;2023-03-12T15:16:58;51.57;;;47.07;;
31808;SDS011;18379;48.208;-1.518;2023-03-12T15:21:59;49.93;;;45.83;;
31808;SDS011;18379;48.208;-1.518;2023-03-12T16:50:33;46.73;;;44.13;;
31808;SDS011;18379;48.208;-1.518;2023-03-12T16:55:39;50.03;;;46.83;;
31808;SDS011;18379;48.208;-1.518;2023-03-12T17:00:47;49.47;;;46.47;;
31808;SDS011;18379;48.208;-1.518;2023-03-12T17:05:50;51.13;;;47.93;;
31808;SDS011;18379;48.208;-1.518;2023-03-12T17:10:51;52.10;;;48.80;;
31808;SDS011;18379;48.208;-1.518;2023-03-12T17:15:53;54.50;;;51.03;;
31808;SDS011;18379;48.208;-1.518;2023-03-12T17:20:55;50.33;;;47.33;;
31808;SDS011;18379;48.208;-1.518;2023-03-12T17:25:56;48.07;;;45.27;;
31808;SDS011;18379;48.208;-1.518;2023-03-12T17:30:58;47.07;;;44.43;;
31808;SDS011;18379;48.208;-1.518;2023-03-12T17:36:00;47.57;;;44.87;;
31808;SDS011;18379;48.208;-1.518;2023-03-12T17:41:03;51.03;;;47.67;;
31808;SDS011;18379;48.208;-1.518;2023-03-12T17:46:05;48.73;;;45.80;;
31808;SDS011;18379;48.208;-1.518;2023-03-12T17:51:08;51.10;;;47.80;;
31808;SDS011;18379;48.208;-1.518;2023-03-12T17:56:09;50.37;;;47.20;;
31808;SDS011;18379;48.208;-1.518;2023-03-12T18:01:12;53.80;;;49.87;;
31808;SDS011;18379;48.208;-1.518;2023-03-12T18:06:13;56.07;;;51.83;;
31808;SDS011;18379;48.208;-1.518;2023-03-12T18:11:14;55.43;;;51.77;;
31808;SDS011;18379;48.208;-1.518;2023-03-12T18:16:15;57.17;;;52.50;;
31808;SDS011;18379;48.208;-1.518;2023-03-12T18:21:16;51.67;;;48.23;;
31808;SDS011;18379;48.208;-1.518;2023-03-12T18:26:16;56.47;;;52.60;;
31808;SDS011;18379;48.208;-1.518;2023-03-12T18:31:17;56.33;;;52.07;;
31808;SDS011;18379;48.208;-1.518;2023-03-12T18:36:18;61.60;;;56.90;;
31808;SDS011;18379;48.208;-1.518;2023-03-12T18:41:28;63.17;;;57.27;;
31808;SDS011;18379;48.208;-1.518;2023-03-12T18:46:35;51.10;;;47.70;;
31808;SDS011;18379;48.208;-1.518;2023-03-12T18:57:09;54.20;;;50.13;;
31808;SDS011;18379;48.208;-1.518;2023-03-12T19:02:16;58.17;;;53.33;;
31808;SDS011;18379;48.208;-1.518;2023-03-12T19:07:19;55.93;;;51.37;;
31808;SDS011;18379;48.208;-1.518;2023-03-12T19:12:31;59.10;;;53.63;;
31808;SDS011;18379;48.208;-1.518;2023-03-12T19:17:32;55.40;;;50.37;;
31808;SDS011;18379;48.208;-1.518;2023-03-12T19:22:32;56.63;;;51.17;;
31808;SDS011;18379;48.208;-1.518;2023-03-12T19:27:33;56.50;;;51.03;;
31808;SDS011;18379;48.208;-1.518;2023-03-12T19:32:34;57.00;;;50.93;;
31808;SDS011;18379;48.208;-1.518;2023-03-12T19:37:35;72.03;;;55.83;;
31808;SDS011;18379;48.208;-1.518;2023-03-12T19:42:36;65.07;;;56.73;;
31808;SDS011;18379;48.208;-1.518;2023-03-12T19:47:37;56.50;;;50.67;;
31808;SDS011;18379;48.208;-1.518;2023-03-12T19:52:38;60.73;;;52.37;;
31808;SDS011;18379;48.208;-1.518;2023-03-12T19:57:38;58.60;;;52.40;;
31808;SDS011;18379;48.208;-1.518;2023-03-12T20:02:40;75.40;;;57.17;;
31808;SDS011;18379;48.208;-1.518;2023-03-12T20:07:41;65.63;;;55.17;;
31808;SDS011;18379;48.208;-1.518;2023-03-12T20:12:43;75.73;;;57.17;;
31808;SDS011;18379;48.208;-1.518;2023-03-12T20:17:44;60.23;;;54.23;;
31808;SDS011;18379;48.208;-1.518;2023-03-12T20:22:45;58.70;;;51.73;;
31808;SDS011;18379;48.208;-1.518;2023-03-12T20:27:48;66.37;;;53.50;;
31808;SDS011;18379;48.208;-1.518;2023-03-12T20:32:49;59.07;;;52.13;;
31808;SDS011;18379;48.208;-1.518;2023-03-12T20:37:50;61.03;;;52.43;;
31808;SDS011;18379;48.208;-1.518;2023-03-12T20:42:51;71.97;;;53.63;;
31808;SDS011;18379;48.208;-1.518;2023-03-12T20:47:52;61.53;;;54.00;;
31808;SDS011;18379;48.208;-1.518;2023-03-12T20:52:53;68.27;;;55.50;;
31808;SDS011;18379;48.208;-1.518;2023-03-12T20:57:54;58.83;;;52.47;;
31808;SDS011;18379;48.208;-1.518;2023-03-12T21:02:55;74.83;;;57.63;;
31808;SDS011;18379;48.208;-1.518;2023-03-12T21:07:56;57.97;;;51.93;;
31808;SDS011;18379;48.208;-1.518;2023-03-12T21:12:57;61.47;;;50.13;;
31808;SDS011;18379;48.208;-1.518;2023-03-12T21:17:58;57.10;;;50.80;;
31808;SDS011;18379;48.208;-1.518;2023-03-12T21:22:59;58.27;;;50.20;;
31808;SDS011;18379;48.208;-1.518;2023-03-12T21:28:01;60.50;;;50.63;;
31808;SDS011;18379;48.208;-1.518;2023-03-12T21:33:03;55.00;;;49.30;;
31808;SDS011;18379;48.208;-1.518;2023-03-12T21:38:06;58.53;;;50.37;;
31808;SDS011;18379;48.208;-1.518;2023-03-12T21:43:07;56.07;;;50.50;;
31808;SDS011;18379;48.208;-1.518;2023-03-12T21:48:08;60.40;;;52.53;;
31808;SDS011;18379;48.208;-1.518;2023-03-12T21:53:09;57.60;;;51.23;;
31808;SDS011;18379;48.208;-1.518;2023-03-12T21:58:09;58.10;;;51.87;;
31808;SDS011;18379;48.208;-1.518;2023-03-12T22:03:11;56.47;;;50.27;;
31808;SDS011;18379;48.208;-1.518;2023-03-12T22:08:12;59.23;;;53.07;;
31808;SDS011;18379;48.208;-1.518;2023-03-12T22:13:13;57.53;;;51.50;;
31808;SDS011;18379;48.208;-1.518;2023-03-12T22:18:14;57.60;;;51.50;;
31808;SDS011;18379;48.208;-1.518;2023-03-12T22:23:15;56.13;;;50.90;;
31808;SDS011;18379;48.208;-1.518;2023-03-12T22:28:16;55.67;;;50.40;;
31808;SDS011;18379;48.208;-1.518;2023-03-12T22:33:18;57.80;;;51.90;;
31808;SDS011;18379;48.208;-1.518;2023-03-12T22:38:19;55.83;;;50.53;;
31808;SDS011;18379;48.208;-1.518;2023-03-12T22:43:21;56.87;;;50.70;;
31808;SDS011;18379;48.208;-1.518;2023-03-12T22:48:24;54.70;;;48.90;;
31808;SDS011;18379;48.208;-1.518;2023-03-12T22:53:25;52.97;;;47.93;;
31808;SDS011;18379;48.208;-1.518;2023-03-12T22:58:26;57.40;;;51.57;;
31808;SDS011;18379;48.208;-1.518;2023-03-12T23:03:28;51.47;;;46.83;;
31808;SDS011;18379;48.208;-1.518;2023-03-12T23:08:30;51.60;;;47.17;;
31808;SDS011;18379;48.208;-1.518;2023-03-12T23:13:31;51.30;;;46.70;;
31808;SDS011;18379;48.208;-1.518;2023-03-12T23:18:34;51.60;;;47.40;;
31808;SDS011;18379;48.208;-1.518;2023-03-12T23:23:35;51.50;;;46.90;;
31808;SDS011;18379;48.208;-1.518;2023-03-12T23:28:38;53.07;;;48.40;;
31808;SDS011;18379;48.208;-1.518;2023-03-12T23:33:39;54.57;;;49.73;;
31808;SDS011;18379;48.208;-1.518;2023-03-12T23:38:40;53.87;;;49.23;;
31808;SDS011;18379;48.208;-1.518;2023-03-12T23:43:41;53.50;;;48.80;;
31808;SDS011;18379;48.208;-1.518;2023-03-12T23:48:43;54.33;;;49.60;;
31808;SDS011;18379;48.208;-1.518;2023-03-12T23:53:48;55.00;;;50.13;;
31808;SDS011;18379;48.208;-1.518;2023-03-12T23:58:50;54.03;;;49.30;;
